Time;durP1;ratioP1;P1;durP2;ratioP2;P2;SDS_P1;SDS_P2;PMS_P1;PMS_P2;Temp;Humidity;BMP_temperature;BMP_pressure;BME280_temperature;BME280_humidity;BME280_pressure;Samples;Min_cycle;Max_cycle;Signal;HPM_P1;HPM_P2
2022/07/15 00:00:09;;;;;;;5.70;2.88;;;;;;;19.45;48.94;99834.09;340072;28;2152;-74
2022/07/15 00:00:21;;;;;;;5.05;2.80;;;;;;;19.36;49.14;99834.72;340676;29;1525;-73
2022/07/15 00:00:33;;;;;;;4.38;2.72;;;;;;;19.33;49.29;99834.91;342052;28;1149;-73
2022/07/15 00:00:45;;;;;;;3.80;2.80;;;;;;;19.36;49.33;99830.28;341284;28;1079;-73
2022/07/15 00:00:57;;;;;;;3.42;2.92;;;;;;;19.38;49.11;99826.69;340870;29;1318;-72
2022/07/15 00:01:09;;;;;;;3.33;2.90;;;;;;;19.41;49.24;99827.31;341574;28;1227;-73
2022/07/15 00:01:22;;;;;;;3.83;2.70;;;;;;;19.45;48.90;99828.81;340694;28;2120;-73
2022/07/15 00:01:34;;;;;;;3.97;2.67;;;;;;;19.46;48.92;99830.50;340999;29;1697;-72
2022/07/15 00:01:46;;;;;;;4.53;2.80;;;;;;;19.49;48.78;99834.72;340883;29;1068;-73
2022/07/15 00:01:58;;;;;;;5.97;2.80;;;;;;;19.49;48.60;99832.94;340502;28;1612;-74
2022/07/15 00:02:11;;;;;;;6.13;2.80;;;;;;;19.50;48.40;99833.78;339740;29;1935;-73
2022/07/15 00:02:23;;;;;;;5.10;2.83;;;;;;;19.52;48.69;99829.25;341371;28;1832;-73
2022/07/15 00:02:37;;;;;;;5.38;2.80;;;;;;;19.54;49.26;99838.75;342421;28;1269;-72
2022/07/15 00:02:49;;;;;;;4.63;2.80;;;;;;;19.56;50.09;99823.69;340973;28;1195;-73
2022/07/15 00:03:02;;;;;;;5.60;2.70;;;;;;;19.48;49.58;99833.88;340368;28;1571;-73
2022/07/15 00:03:14;;;;;;;5.00;2.60;;;;;;;19.45;49.52;99839.34;341815;28;2134;-72
2022/07/15 00:03:26;;;;;;;4.93;2.63;;;;;;;19.35;49.55;99835.63;341507;28;1841;-73
2022/07/15 00:03:38;;;;;;;4.10;2.70;;;;;;;19.34;49.55;99832.16;340040;28;1607;-72
2022/07/15 00:03:50;;;;;;;4.50;2.78;;;;;;;19.34;50.24;99832.16;340980;29;1231;-73
2022/07/15 00:04:02;;;;;;;5.65;2.88;;;;;;;19.35;50.89;99839.13;340938;28;1211;-72
2022/07/15 00:04:14;;;;;;;6.05;2.95;;;;;;;19.37;50.61;99836.38;341055;29;1156;-73
2022/07/15 00:04:26;;;;;;;4.68;2.60;;;;;;;19.37;50.15;99836.38;339703;28;1951;-72
2022/07/15 00:04:39;;;;;;;5.15;2.80;;;;;;;19.37;50.62;99839.03;340424;29;1871;-72
2022/07/15 00:04:51;;;;;;;5.20;2.85;;;;;;;19.37;50.30;99831.13;340862;29;1028;-73
2022/07/15 00:05:05;;;;;;;4.63;2.97;;;;;;;19.39;50.29;99834.50;340819;28;1324;-72
2022/07/15 00:05:17;;;;;;;4.03;3.00;;;;;;;19.41;50.65;99842.31;340798;29;1067;-72
2022/07/15 00:05:29;;;;;;;5.22;2.80;;;;;;;19.45;50.83;99833.25;340201;28;1762;-73
2022/07/15 00:05:42;;;;;;;4.45;2.63;;;;;;;19.49;50.72;99834.72;340917;28;1876;-73
2022/07/15 00:05:54;;;;;;;3.40;2.65;;;;;;;19.50;50.50;99832.00;342656;28;1222;-72
2022/07/15 00:06:06;;;;;;;3.25;2.60;;;;;;;19.49;51.11;99835.56;342375;28;1327;-72
2022/07/15 00:06:18;;;;;;;3.45;2.60;;;;;;;19.48;50.69;99839.16;342489;28;1139;-73
2022/07/15 00:06:30;;;;;;;3.45;2.75;;;;;;;19.48;51.22;99836.53;341413;28;2132;-73
2022/07/15 00:06:42;;;;;;;3.17;2.80;;;;;;;19.48;51.26;99839.16;341935;28;1874;-73
2022/07/15 00:06:54;;;;;;;6.05;2.70;;;;;;;19.49;51.30;99840.00;340764;29;1761;-73
2022/07/15 00:07:06;;;;;;;6.68;2.70;;;;;;;19.38;49.95;99838.09;339675;29;1137;-72
2022/07/15 00:07:20;;;;;;;5.45;2.63;;;;;;;19.06;50.47;99833.13;339525;29;1289;-73
2022/07/15 00:07:32;;;;;;;4.38;2.65;;;;;;;18.82;51.19;99834.72;339615;29;1829;-72
2022/07/15 00:07:45;;;;;;;4.82;2.78;;;;;;;18.72;51.35;99837.06;339449;29;1016;-72
2022/07/15 00:08:00;;;;;;;3.80;2.80;;;;;;;18.82;51.20;99830.28;339628;29;1332;-72
2022/07/15 00:08:12;;;;;;;5.20;2.78;;;;;;;18.92;51.11;99835.81;337971;29;1879;-74
2022/07/15 00:08:24;;;;;;;5.10;2.60;;;;;;;19.01;51.36;99835.22;338224;29;1802;-74
2022/07/15 00:08:36;;;;;;;3.70;2.45;;;;;;;19.11;51.15;99838.94;337634;29;1547;-72
2022/07/15 00:08:48;;;;;;;4.97;2.65;;;;;;;19.16;50.70;99831.59;337890;29;1347;-73
2022/07/15 00:09:00;;;;;;;4.78;2.70;;;;;;;19.23;50.73;99833.81;339010;29;1270;-73
2022/07/15 00:09:12;;;;;;;4.43;2.80;;;;;;;19.25;50.48;99837.19;339490;29;1238;-73
2022/07/15 00:10:13;;;;;;;4.03;2.90;;;;;;;19.25;50.91;99834.56;338893;29;1849;-73
2022/07/15 00:10:14;;;;;;;4.82;2.60;;;;;;;19.28;50.96;99842.28;339912;28;1404;-72
2022/07/15 00:10:27;;;;;;;4.40;2.53;;;;;;;19.21;50.72;99840.97;340698;28;1849;-73
2022/07/15 00:10:39;;;;;;;4.32;2.50;;;;;;;19.18;50.56;99835.94;341332;28;1884;-73
2022/07/15 00:10:51;;;;;;;5.75;3.00;;;;;;;19.19;50.66;99833.16;342270;28;1203;-74
2022/07/15 00:11:03;;;;;;;6.70;3.03;;;;;;;19.23;50.56;99836.44;342023;28;1897;-74
2022/07/15 00:11:15;;;;;;;5.55;2.83;;;;;;;19.26;50.35;99836.25;342110;28;1829;-72
2022/07/15 00:11:27;;;;;;;3.83;2.70;;;;;;;19.28;50.33;99831.75;342447;28;1026;-72
2022/07/15 00:11:39;;;;;;;3.67;2.53;;;;;;;19.33;50.34;99837.53;340926;29;1217;-72
2022/07/15 00:11:51;;;;;;;4.07;2.80;;;;;;;19.34;50.12;99833.97;341021;29;1063;-73
2022/07/15 00:12:03;;;;;;;4.40;2.85;;;;;;;19.35;50.00;99833.00;340518;29;1276;-73
2022/07/15 00:12:15;;;;;;;4.50;2.83;;;;;;;19.37;49.69;99839.03;340953;29;1056;-73
2022/07/15 00:12:27;;;;;;;4.00;2.70;;;;;;;19.38;49.74;99831.94;339960;29;1844;-74
2022/07/15 00:13:04;;;;;;;3.33;2.60;;;;;;;19.38;49.50;99840.72;340774;29;1682;-72
2022/07/15 00:13:16;;;;;;;6.18;2.70;;;;;;;19.39;49.78;99833.66;339690;29;1192;-73
2022/07/15 00:13:28;;;;;;;6.25;2.60;;;;;;;19.40;49.92;99835.31;340319;29;1747;-74
2022/07/15 00:13:40;;;;;;;6.13;2.60;;;;;;;19.40;49.67;99841.47;341429;28;1843;-73
2022/07/15 00:13:52;;;;;;;6.28;2.60;;;;;;;19.39;49.60;99829.22;342170;28;1158;-73
2022/07/15 00:14:08;;;;;;;6.25;2.90;;;;;;;19.41;49.47;99832.59;341408;28;1954;-73
2022/07/15 00:14:21;;;;;;;4.90;2.95;;;;;;;19.42;49.55;99833.44;340757;29;1726;-74
2022/07/15 00:14:33;;;;;;;4.97;2.83;;;;;;;19.40;49.54;99841.47;339696;29;1584;-74
2022/07/15 00:14:45;;;;;;;5.75;2.88;;;;;;;19.40;49.50;99836.19;340997;29;1028;-73
2022/07/15 00:14:58;;;;;;;7.47;2.78;;;;;;;19.39;49.12;99834.50;340825;28;1329;-73
2022/07/15 00:15:10;;;;;;;8.38;2.58;;;;;;;19.39;49.46;99837.13;340251;29;1775;-73
2022/07/15 00:15:26;;;;;;;5.93;2.50;;;;;;;19.35;49.76;99833.00;340614;29;1736;-73
2022/07/15 00:15:38;;;;;;;4.80;2.80;;;;;;;19.33;50.25;99832.25;340797;28;1997;-74
2022/07/15 00:15:50;;;;;;;5.03;2.80;;;;;;;19.32;50.45;99834.06;341009;29;1605;-73
2022/07/15 00:16:02;;;;;;;4.35;2.80;;;;;;;19.30;50.12;99835.97;340669;29;1958;-73
2022/07/15 00:16:14;;;;;;;4.47;2.90;;;;;;;19.25;51.05;99829.28;339830;29;1043;-73
2022/07/15 00:16:26;;;;;;;5.47;2.80;;;;;;;19.27;50.61;99840.56;340482;28;1720;-73
2022/07/15 00:16:38;;;;;;;6.72;2.80;;;;;;;19.27;50.53;99841.41;341289;28;1908;-73
2022/07/15 00:16:51;;;;;;;7.30;2.72;;;;;;;19.28;50.27;99837.00;342133;28;1197;-73
2022/07/15 00:17:03;;;;;;;6.70;2.60;;;;;;;19.28;50.20;99839.66;341303;28;1894;-73
2022/07/15 00:17:15;;;;;;;5.28;2.55;;;;;;;19.29;50.03;99834.25;342247;28;1283;-73
2022/07/15 00:17:27;;;;;;;5.10;2.70;;;;;;;19.31;50.00;99842.06;341231;28;1751;-72
2022/07/15 00:17:41;;;;;;;4.63;2.70;;;;;;;19.31;49.88;99835.00;341213;28;2145;-73
2022/07/15 00:17:53;;;;;;;4.60;2.63;;;;;;;19.32;49.88;99838.50;342188;28;1156;-73
2022/07/15 00:18:05;;;;;;;3.97;2.55;;;;;;;19.29;50.45;99843.94;342458;28;1233;-73
2022/07/15 00:18:17;;;;;;;3.63;2.50;;;;;;;19.24;51.03;99830.25;342406;28;1216;-75
2022/07/15 00:18:29;;;;;;;3.33;2.50;;;;;;;19.15;50.94;99836.94;341341;28;1701;-73
2022/07/15 00:18:41;;;;;;;4.22;2.60;;;;;;;19.11;51.17;99836.28;340842;29;1838;-73
2022/07/15 00:18:53;;;;;;;4.50;2.65;;;;;;;19.10;51.58;99839.91;341151;29;1211;-73
2022/07/15 00:19:05;;;;;;;5.28;2.75;;;;;;;19.14;51.41;99836.13;340602;29;1068;-73
2022/07/15 00:19:17;;;;;;;4.93;2.70;;;;;;;19.16;51.35;99838.66;340883;29;1230;-73
2022/07/15 00:19:30;;;;;;;4.90;2.65;;;;;;;19.19;51.08;99832.34;340165;29;1904;-73
2022/07/15 00:19:42;;;;;;;3.85;2.80;;;;;;;19.21;50.71;99835.72;340723;29;1813;-73
2022/07/15 00:19:54;;;;;;;4.93;2.95;;;;;;;19.22;50.88;99832.16;339732;29;1265;-73
2022/07/15 00:20:07;;;;;;;5.85;2.88;;;;;;;19.24;50.85;99840.78;338464;29;1868;-73
2022/07/15 00:20:21;;;;;;;5.35;2.70;;;;;;;19.24;50.39;99828.44;339621;29;1663;-73
2022/07/15 00:20:33;;;;;;;5.40;2.60;;;;;;;19.25;50.48;99838.03;339581;29;1692;-74
2022/07/15 00:20:46;;;;;;;4.88;2.70;;;;;;;19.21;50.86;99840.97;338629;29;1942;-73
2022/07/15 00:20:58;;;;;;;5.30;2.70;;;;;;;19.22;50.65;99842.69;340659;28;1434;-74
2022/07/15 00:21:10;;;;;;;5.88;2.78;;;;;;;19.24;50.46;99830.25;341261;28;1228;-73
2022/07/15 00:21:22;;;;;;;5.40;2.70;;;;;;;19.23;50.08;99833.81;340526;29;1797;-73
2022/07/15 00:21:34;;;;;;;6.10;2.70;;;;;;;19.25;49.75;99831.94;340039;29;2011;-73
2022/07/15 00:21:46;;;;;;;3.85;2.50;;;;;;;19.24;49.63;99841.63;339961;29;731;-73
2022/07/15 00:21:59;;;;;;;5.20;2.60;;;;;;;19.19;49.88;99832.34;340535;28;1397;-73
2022/07/15 00:22:11;;;;;;;5.20;2.53;;;;;;;19.21;50.25;99833.06;341051;29;845;-72
2022/07/15 00:22:23;;;;;;;4.93;2.60;;;;;;;19.21;50.02;99833.91;339637;29;1772;-74
2022/07/15 00:22:35;;;;;;;3.72;2.53;;;;;;;19.22;49.77;99832.16;340776;29;1899;-74
2022/07/15 00:22:48;;;;;;;3.38;2.63;;;;;;;19.22;49.73;99832.16;340548;28;1043;-73
2022/07/15 00:23:04;;;;;;;3.53;2.72;;;;;;;19.22;49.60;99834.78;341631;28;1879;-73
2022/07/15 00:23:16;;;;;;;3.72;2.72;;;;;;;19.24;50.01;99838.16;343322;28;1067;-73
2022/07/15 00:23:29;;;;;;;5.03;2.72;;;;;;;19.25;49.76;99839.84;341694;28;1799;-73
2022/07/15 00:23:41;;;;;;;5.47;2.60;;;;;;;19.25;49.44;99834.56;342193;28;1260;-73
2022/07/15 00:23:53;;;;;;;5.47;2.70;;;;;;;19.22;49.88;99832.16;341836;28;1275;-73
2022/07/15 00:24:05;;;;;;;4.47;2.60;;;;;;;19.25;49.99;99830.13;341948;28;1444;-73
2022/07/15 00:24:17;;;;;;;4.35;2.60;;;;;;;19.25;49.66;99831.94;340954;29;1179;-73
2022/07/15 00:24:29;;;;;;;3.30;2.53;;;;;;;19.25;49.68;99835.41;341297;28;1826;-73
2022/07/15 00:24:41;;;;;;;3.30;2.55;;;;;;;19.23;49.44;99839.09;342182;28;1910;-73
2022/07/15 00:24:53;;;;;;;4.38;2.65;;;;;;;19.23;49.31;99833.81;340948;29;1294;-73
2022/07/15 00:25:06;;;;;;;5.03;2.60;;;;;;;19.23;49.31;99833.81;341034;29;1043;-73
2022/07/15 00:25:18;;;;;;;4.55;2.60;;;;;;;19.23;49.45;99828.53;340826;29;1232;-73
2022/07/15 00:25:30;;;;;;;3.40;2.60;;;;;;;19.18;49.70;99830.66;339611;28;1830;-73
2022/07/15 00:25:43;;;;;;;4.57;2.80;;;;;;;19.20;50.11;99834.03;340212;29;1759;-73
2022/07/15 00:25:55;;;;;;;5.30;2.88;;;;;;;19.20;50.22;99834.03;340774;29;1322;-75
2022/07/15 00:26:07;;;;;;;5.10;2.67;;;;;;;19.20;50.00;99839.31;341285;29;976;-73
2022/07/15 00:26:20;;;;;;;5.50;2.60;;;;;;;19.18;50.48;99830.66;340739;29;1236;-73
2022/07/15 00:26:32;;;;;;;4.70;2.67;;;;;;;19.19;50.29;99827.06;340261;29;1582;-73
2022/07/15 00:26:48;;;;;;;3.28;2.80;;;;;;;19.15;50.19;99832.50;340870;29;1087;-73
2022/07/15 00:27:02;;;;;;;3.28;2.83;;;;;;;19.11;50.66;99831.03;341997;28;1372;-73
2022/07/15 00:27:14;;;;;;;3.70;2.72;;;;;;;19.10;51.64;99829.34;342435;28;1160;-73
2022/07/15 00:27:26;;;;;;;4.05;2.80;;;;;;;19.10;51.42;99836.41;341677;28;1823;-74
2022/07/15 00:27:59;;;;;;;3.40;2.65;;;;;;;19.13;50.96;99831.78;341139;28;2110;-74
2022/07/15 00:28:11;;;;;;;5.20;2.80;;;;;;;19.15;51.10;99827.25;342031;28;1765;-73
2022/07/15 00:28:24;;;;;;;6.68;2.70;;;;;;;19.13;51.93;99836.22;341952;28;1925;-73
2022/07/15 00:28:36;;;;;;;6.95;2.72;;;;;;;19.13;52.01;99834.41;342470;28;1064;-73
2022/07/15 00:28:48;;;;;;;5.93;3.00;;;;;;;19.13;51.82;99833.56;342254;28;1164;-73
2022/07/15 00:29:00;;;;;;;4.22;2.80;;;;;;;19.13;51.64;99830.94;342391;28;1304;-73
2022/07/15 00:29:12;;;;;;;3.47;2.67;;;;;;;19.12;52.34;99832.72;342414;28;1043;-73
2022/07/15 00:29:25;;;;;;;3.25;2.72;;;;;;;19.10;52.88;99829.34;341887;28;1835;-74
2022/07/15 00:29:37;;;;;;;3.85;2.80;;;;;;;19.12;52.34;99832.72;341284;28;1701;-74
2022/07/15 00:29:50;;;;;;;4.15;2.78;;;;;;;19.12;52.33;99832.72;342404;28;1267;-74
2022/07/15 00:30:05;;;;;;;4.30;2.83;;;;;;;19.12;51.78;99826.63;342631;28;1213;-74
2022/07/15 00:30:17;;;;;;;4.00;2.80;;;;;;;19.11;51.56;99836.28;342403;28;1290;-73
2022/07/15 00:30:31;;;;;;;4.07;2.90;;;;;;;19.10;52.62;99834.63;342195;28;2305;-73
2022/07/15 00:30:43;;;;;;;4.70;3.05;;;;;;;19.12;52.95;99835.38;342276;28;1052;-74
2022/07/15 00:30:55;;;;;;;4.47;3.00;;;;;;;19.12;52.24;99843.28;342069;28;2264;-75
2022/07/15 00:31:07;;;;;;;3.83;2.95;;;;;;;19.12;52.38;99831.91;340949;28;1697;-74
2022/07/15 00:31:20;;;;;;;4.05;2.80;;;;;;;19.13;52.42;99834.41;341254;28;2146;-75
2022/07/15 00:31:33;;;;;;;3.95;2.72;;;;;;;19.11;52.65;99831.03;342158;28;1772;-73
2022/07/15 00:31:45;;;;;;;3.88;2.90;;;;;;;19.14;52.35;99841.38;342064;28;1048;-73
2022/07/15 00:31:58;;;;;;;3.67;2.80;;;;;;;19.16;52.12;99836.84;341949;28;1295;-74
2022/07/15 00:32:10;;;;;;;3.58;2.60;;;;;;;19.19;51.57;99833.16;342466;28;1098;-73
2022/07/15 00:32:23;;;;;;;3.72;2.60;;;;;;;19.22;51.98;99837.41;342168;28;1821;-74
2022/07/15 00:32:35;;;;;;;4.88;2.67;;;;;;;19.23;51.95;99833.81;342189;28;1849;-74
2022/07/15 00:32:47;;;;;;;6.55;2.70;;;;;;;19.22;51.96;99832.97;342402;28;1466;-74
2022/07/15 00:33:00;;;;;;;5.75;2.70;;;;;;;19.23;51.90;99839.09;341378;28;1885;-75
2022/07/15 00:33:12;;;;;;;3.47;2.72;;;;;;;19.22;51.42;99830.34;339675;28;1884;-73
2022/07/15 00:33:24;;;;;;;3.40;2.70;;;;;;;19.22;51.12;99832.97;339657;29;1152;-73
2022/07/15 00:33:36;;;;;;;3.58;2.47;;;;;;;19.24;51.08;99830.25;339994;29;1176;-73
2022/07/15 00:33:48;;;;;;;3.58;2.50;;;;;;;19.24;50.78;99831.09;340805;29;1124;-73
2022/07/15 00:34:00;;;;;;;3.45;2.58;;;;;;;19.23;50.83;99833.81;340989;29;1289;-73
2022/07/15 00:34:12;;;;;;;3.78;2.60;;;;;;;19.24;51.38;99835.53;340841;29;1102;-73
2022/07/15 00:34:24;;;;;;;3.20;2.47;;;;;;;19.25;50.97;99827.50;340413;29;1848;-73
2022/07/15 00:34:36;;;;;;;4.00;2.58;;;;;;;19.26;50.90;99836.25;340792;29;1683;-73
2022/07/15 00:34:50;;;;;;;4.82;2.80;;;;;;;19.28;50.82;99831.75;341016;29;1051;-73
2022/07/15 00:35:03;;;;;;;5.25;2.90;;;;;;;19.26;52.04;99829.19;340045;29;2077;-73
2022/07/15 00:35:15;;;;;;;5.50;2.90;;;;;;;19.23;52.36;99831.19;341412;28;1245;-73
2022/07/15 00:35:29;;;;;;;4.53;2.90;;;;;;;19.22;52.68;99837.41;339970;29;1774;-74
2022/07/15 00:35:41;;;;;;;4.20;2.90;;;;;;;19.21;52.66;99835.72;340449;29;1904;-73
2022/07/15 00:35:53;;;;;;;3.70;2.78;;;;;;;19.23;51.47;99833.81;341080;29;1197;-73
2022/07/15 00:36:05;;;;;;;2.92;2.50;;;;;;;19.25;51.62;99837.19;340777;29;1289;-74
2022/07/15 00:36:17;;;;;;;3.50;2.50;;;;;;;19.26;51.54;99829.19;341156;28;1066;-74
2022/07/15 00:36:29;;;;;;;4.20;2.67;;;;;;;19.26;51.74;99828.34;340155;29;1722;-74
2022/07/15 00:36:41;;;;;;;4.00;2.80;;;;;;;19.25;51.90;99834.56;339986;29;1934;-74
2022/07/15 00:36:53;;;;;;;3.28;2.67;;;;;;;19.22;52.08;99837.41;339534;29;1812;-73
2022/07/15 00:37:05;;;;;;;3.72;2.67;;;;;;;19.22;52.52;99837.41;338305;29;2269;-73
2022/07/15 00:37:17;;;;;;;5.03;2.70;;;;;;;19.22;51.93;99837.41;338159;29;1059;-73
2022/07/15 00:37:29;;;;;;;4.72;2.80;;;;;;;19.21;51.97;99833.06;337474;29;1958;-73
2022/07/15 00:37:41;;;;;;;4.63;2.80;;;;;;;19.22;52.14;99832.16;339775;29;1798;-73
2022/07/15 00:37:53;;;;;;;4.60;2.70;;;;;;;19.21;51.59;99836.53;339748;29;1081;-73
2022/07/15 00:38:08;;;;;;;4.95;2.60;;;;;;;19.18;51.82;99830.66;338099;29;1238;-73
2022/07/15 00:38:26;;;;;;;6.60;2.70;;;;;;;19.19;51.65;99832.34;338482;29;1728;-74
2022/07/15 00:38:38;;;;;;;5.78;2.92;;;;;;;19.21;51.38;99830.44;339001;29;1675;-73
2022/07/15 00:38:50;;;;;;;3.45;2.72;;;;;;;19.20;51.32;99824.34;340547;29;1108;-73
2022/07/15 00:39:03;;;;;;;3.17;2.78;;;;;;;19.19;51.50;99827.06;340759;29;1950;-74
2022/07/15 00:39:16;;;;;;;3.53;2.70;;;;;;;19.16;52.03;99830.75;341107;28;850;-73
2022/07/15 00:39:28;;;;;;;3.80;2.60;;;;;;;19.15;52.14;99832.50;339538;28;1878;-73
2022/07/15 00:39:40;;;;;;;3.85;2.70;;;;;;;19.14;52.63;99830.00;340614;29;1491;-73
2022/07/15 00:39:52;;;;;;;3.95;2.80;;;;;;;19.14;52.16;99830.84;339681;29;1300;-73
2022/07/15 00:40:05;;;;;;;4.65;3.00;;;;;;;19.16;52.09;99823.69;340676;29;1383;-73
2022/07/15 00:40:18;;;;;;;4.88;3.00;;;;;;;19.18;52.33;99835.94;341029;29;1233;-73
2022/07/15 00:40:30;;;;;;;4.70;2.90;;;;;;;19.18;52.39;99825.38;340424;29;1867;-73
2022/07/15 00:40:47;;;;;;;4.18;2.75;;;;;;;19.19;52.03;99827.06;340950;29;1887;-73
2022/07/15 00:40:59;;;;;;;3.38;2.60;;;;;;;19.22;51.94;99829.50;340842;29;1342;-73
2022/07/15 00:41:11;;;;;;;3.22;2.65;;;;;;;19.22;51.64;99825.06;339804;29;1226;-73
2022/07/15 00:41:23;;;;;;;4.07;2.60;;;;;;;19.24;51.81;99830.25;341011;28;1830;-74
2022/07/15 00:41:39;;;;;;;5.60;2.60;;;;;;;19.24;51.54;99822.34;339622;29;1629;-75
2022/07/15 00:41:51;;;;;;;5.30;2.72;;;;;;;19.24;51.66;99824.97;340860;29;1066;-74
2022/07/15 00:42:04;;;;;;;5.07;2.80;;;;;;;19.21;52.05;99825.16;339590;29;1788;-74
2022/07/15 00:42:43;;;;;;;4.90;2.90;;;;;;;19.20;52.28;99823.50;339473;29;2258;-74
2022/07/15 00:42:48;;;;;;;4.22;2.88;;;;;;;19.21;52.26;99830.44;340679;29;1285;-73
2022/07/15 00:42:59;;;;;;;4.85;2.92;;;;;;;19.22;51.90;99829.50;340821;29;1563;-74
2022/07/15 00:43:12;;;;;;;4.78;3.00;;;;;;;19.25;51.79;99824.03;339397;28;1878;-73
2022/07/15 00:43:24;;;;;;;4.28;2.85;;;;;;;19.26;51.35;99828.34;340286;29;1476;-73
2022/07/15 00:43:36;;;;;;;4.05;2.60;;;;;;;19.28;50.98;99823.84;341462;28;1298;-73
2022/07/15 00:43:48;;;;;;;7.50;2.65;;;;;;;19.28;50.98;99826.47;342178;28;1280;-73
2022/07/15 00:44:00;;;;;;;7.93;2.78;;;;;;;19.28;50.79;99821.19;342614;28;1331;-73
2022/07/15 00:44:12;;;;;;;3.78;2.60;;;;;;;19.28;50.87;99831.75;341741;28;2134;-73
2022/07/15 00:44:25;;;;;;;3.50;2.47;;;;;;;19.28;50.89;99826.47;340253;29;1800;-73
2022/07/15 00:44:37;;;;;;;3.25;2.60;;;;;;;19.26;50.84;99821.28;339687;29;1649;-74
2022/07/15 00:44:49;;;;;;;3.75;2.60;;;;;;;19.27;50.54;99827.41;340217;29;2068;-74
2022/07/15 00:45:02;;;;;;;4.10;2.72;;;;;;;19.26;50.48;99831.00;340533;28;1254;-75
2022/07/15 00:45:16;;;;;;;4.30;2.60;;;;;;;19.22;50.66;99827.72;340047;29;1744;-73
2022/07/15 00:45:28;;;;;;;4.18;2.40;;;;;;;19.23;50.73;99828.53;339511;29;1196;-73
2022/07/15 00:45:40;;;;;;;3.72;2.40;;;;;;;19.22;50.55;99826.88;339600;29;1100;-73
2022/07/15 00:45:52;;;;;;;3.58;2.45;;;;;;;19.21;50.58;99827.81;341013;29;1104;-73
2022/07/15 00:46:04;;;;;;;5.80;2.75;;;;;;;19.16;50.50;99822.84;340431;29;1686;-73
2022/07/15 00:46:18;;;;;;;6.95;2.97;;;;;;;19.14;50.39;99828.22;340919;29;1956;-73
2022/07/15 00:46:31;;;;;;;4.55;2.90;;;;;;;19.13;50.83;99831.78;340508;28;1732;-73
2022/07/15 00:46:43;;;;;;;3.58;2.55;;;;;;;19.11;50.29;99831.03;341993;28;1510;-73
2022/07/15 00:46:56;;;;;;;3.70;2.50;;;;;;;19.09;50.20;99832.91;342288;28;1338;-74
2022/07/15 00:47:08;;;;;;;4.03;2.50;;;;;;;19.05;50.22;99831.44;342177;28;1266;-73
2022/07/15 00:47:20;;;;;;;4.93;2.60;;;;;;;19.04;50.36;99828.91;341991;28;1056;-73
2022/07/15 00:47:34;;;;;;;5.45;2.72;;;;;;;19.01;50.48;99824.66;341158;28;1865;-73
2022/07/15 00:47:51;;;;;;;8.48;2.92;;;;;;;18.98;50.52;99845.13;341432;28;1084;-73
2022/07/15 00:48:04;;;;;;;7.78;2.90;;;;;;;18.94;50.54;99828.66;341634;28;1795;-74
2022/07/15 00:48:20;;;;;;;4.38;2.85;;;;;;;18.91;50.58;99831.47;342153;28;1420;-73
2022/07/15 00:48:32;;;;;;;4.82;2.70;;;;;;;18.88;50.51;99835.16;342387;28;1057;-73
2022/07/15 00:48:45;;;;;;;4.53;2.80;;;;;;;18.86;50.94;99834.41;342360;28;1841;-73
2022/07/15 00:48:58;;;;;;;3.45;2.80;;;;;;;18.84;50.77;99835.47;342395;28;1229;-73
2022/07/15 00:49:10;;;;;;;3.83;2.80;;;;;;;18.84;50.95;99833.66;342439;28;1111;-73
2022/07/15 00:49:22;;;;;;;4.68;2.85;;;;;;;18.83;50.95;99831.97;342294;28;1851;-74
2022/07/15 00:49:35;;;;;;;4.70;2.78;;;;;;;18.84;50.88;99832.84;341237;28;2177;-75
2022/07/15 00:49:46;;;;;;;4.68;2.80;;;;;;;18.80;51.16;99829.53;341931;28;1558;-73
2022/07/15 00:49:59;;;;;;;3.58;2.50;;;;;;;18.80;50.96;99831.34;340820;29;1239;-73
2022/07/15 00:50:12;;;;;;;3.60;2.60;;;;;;;18.76;51.10;99835.91;341146;28;1123;-73
2022/07/15 00:50:26;;;;;;;3.47;2.75;;;;;;;18.76;51.10;99830.66;340633;29;1749;-75
2022/07/15 00:50:38;;;;;;;3.92;3.00;;;;;;;18.75;51.01;99829.81;339831;29;1654;-73
2022/07/15 00:50:50;;;;;;;4.47;3.05;;;;;;;18.76;51.18;99830.66;340683;29;1059;-73
2022/07/15 00:51:03;;;;;;;4.18;2.83;;;;;;;18.74;51.19;99830.75;340349;29;1771;-75
2022/07/15 00:51:15;;;;;;;3.60;2.70;;;;;;;18.69;51.59;99835.47;340903;29;1076;-73
2022/07/15 00:51:27;;;;;;;4.60;2.78;;;;;;;18.68;51.39;99838.19;340272;29;2266;-73
2022/07/15 00:51:45;;;;;;;4.72;2.90;;;;;;;18.67;51.40;99829.47;339959;29;1727;-73
2022/07/15 00:51:59;;;;;;;3.80;2.80;;;;;;;18.69;51.68;99830.22;339483;29;1329;-74
2022/07/15 00:52:12;;;;;;;4.65;2.70;;;;;;;18.69;51.35;99835.47;342305;28;1115;-73
2022/07/15 00:52:26;;;;;;;5.40;2.90;;;;;;;18.67;51.35;99837.34;341978;28;1817;-75
2022/07/15 00:52:40;;;;;;;4.75;3.00;;;;;;;18.64;51.55;99831.44;341717;28;1717;-73
2022/07/15 00:53:00;;;;;;;4.25;2.97;;;;;;;18.66;52.06;99830.38;342093;28;1184;-73
2022/07/15 00:53:19;;;;;;;5.28;2.78;;;;;;;18.67;51.56;99833.84;341640;28;1651;-73
2022/07/15 00:53:34;;;;;;;5.25;2.67;;;;;;;18.67;51.58;99826.81;341519;28;1670;-73
2022/07/15 00:53:46;;;;;;;5.25;2.70;;;;;;;18.64;51.46;99834.91;343005;28;1055;-73
2022/07/15 00:53:58;;;;;;;4.70;2.72;;;;;;;18.65;51.76;99828.72;342861;28;1271;-73
2022/07/15 00:54:13;;;;;;;5.15;2.80;;;;;;;18.59;52.25;99834.34;341877;28;1818;-73
2022/07/15 00:54:27;;;;;;;4.43;2.65;;;;;;;18.58;52.94;99832.66;341764;28;1806;-73
2022/07/15 00:54:39;;;;;;;3.40;2.60;;;;;;;18.55;53.39;99832.84;341066;28;1758;-73
2022/07/15 00:54:52;;;;;;;3.08;2.70;;;;;;;18.57;53.05;99830.97;341184;29;1219;-73
2022/07/15 00:55:06;;;;;;;3.58;2.80;;;;;;;18.54;52.87;99834.63;342225;28;1290;-73
2022/07/15 00:55:19;;;;;;;3.78;2.80;;;;;;;18.53;52.52;99834.72;342172;28;1059;-73
2022/07/15 00:55:36;;;;;;;3.42;2.50;;;;;;;18.54;52.51;99833.78;340904;28;1979;-73
2022/07/15 00:55:49;;;;;;;4.80;2.50;;;;;;;18.55;52.56;99835.47;342609;28;1067;-73
2022/07/15 00:56:02;;;;;;;5.03;2.60;;;;;;;18.56;52.50;99831.91;342073;28;1220;-73
2022/07/15 00:56:16;;;;;;;3.42;2.80;;;;;;;18.53;53.42;99832.09;342345;28;1196;-74
2022/07/15 00:56:56;;;;;;;5.78;2.90;;;;;;;18.53;53.85;99837.34;344170;28;1403;-72
2022/07/15 00:57:08;;;;;;;5.70;2.58;;;;;;;18.55;53.57;99833.72;345909;28;1071;-72
2022/07/15 00:57:21;;;;;;;3.70;2.60;;;;;;;18.57;53.71;99836.22;346274;28;1099;-72
2022/07/15 00:57:37;;;;;;;3.42;2.80;;;;;;;18.55;54.76;99832.84;345889;28;1460;-72
2022/07/15 00:57:51;;;;;;;4.13;3.00;;;;;;;18.55;54.34;99832.84;344863;28;1107;-72
2022/07/15 00:58:04;;;;;;;4.80;2.97;;;;;;;18.58;54.03;99837.94;343517;28;1455;-72
2022/07/15 00:58:20;;;;;;;4.82;2.90;;;;;;;18.58;54.04;99832.66;344821;28;1329;-72
2022/07/15 00:58:36;;;;;;;6.53;2.78;;;;;;;18.56;54.25;99831.91;344849;28;1094;-72
2022/07/15 00:58:51;;;;;;;5.45;2.70;;;;;;;18.55;54.55;99838.09;344886;28;1230;-74
2022/07/15 00:59:05;;;;;;;3.70;2.78;;;;;;;18.57;54.31;99830.97;343637;28;1910;-72
2022/07/15 00:59:21;;;;;;;4.45;2.70;;;;;;;18.56;54.69;99829.28;343770;28;900;-72
2022/07/15 00:59:34;;;;;;;4.28;2.60;;;;;;;18.54;54.62;99834.63;344804;28;1606;-72
2022/07/15 00:59:47;;;;;;;3.22;2.67;;;;;;;18.57;54.21;99825.69;344676;28;1067;-72
2022/07/15 01:00:03;;;;;;;5.32;2.80;;;;;;;18.60;54.01;99833.41;344342;28;1391;-73
2022/07/15 01:00:16;;;;;;;5.10;2.60;;;;;;;18.61;54.16;99832.44;345043;28;1747;-72
2022/07/15 01:00:28;;;;;;;3.92;2.70;;;;;;;18.61;54.36;99831.63;346307;28;1200;-72
2022/07/15 01:00:42;;;;;;;5.05;2.70;;;;;;;18.62;54.07;99833.31;346028;28;1637;-72
2022/07/15 01:00:56;;;;;;;4.60;2.60;;;;;;;18.60;54.37;99833.41;346580;28;1237;-73
2022/07/15 01:01:10;;;;;;;5.22;2.70;;;;;;;18.62;53.80;99828.88;344965;28;1265;-73
2022/07/15 01:01:23;;;;;;;5.78;2.80;;;;;;;18.63;54.37;99832.38;346232;28;1229;-73
2022/07/15 01:01:35;;;;;;;4.22;2.80;;;;;;;18.63;54.15;99835.84;346096;28;2008;-72
2022/07/15 01:01:48;;;;;;;3.35;2.80;;;;;;;18.63;53.90;99833.19;346011;28;1059;-73
2022/07/15 01:02:02;;;;;;;3.88;2.92;;;;;;;18.64;53.66;99834.91;345116;28;1311;-73
2022/07/15 01:02:14;;;;;;;5.10;3.10;;;;;;;18.64;54.09;99824.38;344927;28;1070;-73
2022/07/15 01:02:26;;;;;;;5.50;3.15;;;;;;;18.65;54.14;99828.72;344886;28;1055;-73
2022/07/15 01:02:42;;;;;;;4.50;2.95;;;;;;;18.67;54.12;99832.09;344694;28;1027;-73
2022/07/15 01:02:54;;;;;;;3.40;2.80;;;;;;;18.69;54.22;99824.94;346280;28;1286;-73
2022/07/15 01:03:07;;;;;;;3.05;2.72;;;;;;;18.70;54.31;99826.63;344914;28;1856;-73
2022/07/15 01:03:19;;;;;;;3.03;2.70;;;;;;;18.72;53.97;99823.91;344748;28;1263;-73
2022/07/15 01:03:31;;;;;;;2.90;2.50;;;;;;;18.72;53.81;99829.16;345269;28;1792;-72
2022/07/15 01:03:47;;;;;;;4.13;2.53;;;;;;;18.70;53.58;99825.78;346261;28;1075;-73